createdAt,value
2018-12-19T00:01:52.255Z,239.77
2018-12-19T00:04:25.000Z,277.13
2018-12-19T00:06:57.426Z,254.10
2018-12-19T00:09:27.775Z,277.18
2018-12-19T00:11:58.150Z,248.23
2018-12-19T00:14:29.527Z,206.87
2018-12-19T00:16:59.853Z,201.50
2018-12-19T00:19:29.915Z,249.33
2018-12-19T00:22:00.055Z,739.83
2018-12-19T00:24:30.478Z,199.97
2018-12-19T00:27:03.336Z,306.80
2018-12-19T00:29:36.048Z,280.10
2018-12-19T00:32:08.479Z,212.47
2018-12-19T00:34:40.809Z,185.50
2018-12-19T00:37:11.056Z,209.60
2018-12-19T00:39:41.600Z,193.77
2018-12-19T00:42:12.036Z,202.80
2018-12-19T00:44:42.215Z,194.33
2018-12-19T00:47:12.744Z,198.13
2018-12-19T00:49:43.172Z,198.87
2018-12-19T00:52:13.557Z,193.77
2018-12-19T00:54:44.127Z,192.83
2018-12-19T00:57:14.689Z,191.22
2018-12-19T00:59:45.313Z,191.07
2018-12-19T01:02:15.686Z,187.93
2018-12-19T01:04:48.181Z,174.37
2018-12-19T01:07:22.886Z,180.90
2018-12-19T01:09:53.268Z,168.63
2018-12-19T01:12:24.512Z,185.40
2018-12-19T01:14:55.484Z,174.80
2018-12-19T01:17:25.751Z,164.33
2018-12-19T01:19:56.457Z,156.67
2018-12-19T01:22:26.682Z,154.87
2018-12-19T01:24:56.746Z,153.57
2018-12-19T01:27:27.226Z,156.63
2018-12-19T01:29:57.560Z,145.20
2018-12-19T01:32:28.532Z,147.27
2018-12-19T01:34:59.467Z,139.13
2018-12-19T01:37:30.295Z,158.40
2018-12-19T01:40:00.605Z,148.53
2018-12-19T01:42:30.791Z,153.90
2018-12-19T01:45:01.894Z,142.63
2018-12-19T01:47:32.310Z,140.63
2018-12-19T01:50:03.530Z,147.17
2018-12-19T01:52:33.846Z,149.93
2018-12-19T01:55:04.653Z,154.27
2018-12-19T01:57:34.877Z,137.90
2018-12-19T02:00:05.769Z,153.07
2018-12-19T02:02:36.882Z,152.73
2018-12-19T02:05:07.810Z,140.57
2018-12-19T02:07:38.146Z,154.00
2018-12-19T02:10:08.312Z,138.03
2018-12-19T02:12:39.057Z,143.73
2018-12-19T02:15:09.238Z,142.57
2018-12-19T02:17:40.687Z,140.70
2018-12-19T02:20:11.443Z,138.87
2018-12-19T02:22:41.783Z,140.77
2018-12-19T02:25:12.144Z,138.07
2018-12-19T02:27:43.014Z,153.20
2018-12-19T02:30:13.165Z,147.07
2018-12-19T02:32:44.077Z,139.53
2018-12-19T02:35:14.641Z,139.80
2018-12-19T02:37:45.025Z,145.77
2018-12-19T02:40:16.207Z,146.00
2018-12-19T02:42:46.454Z,148.17
2018-12-19T02:45:17.400Z,148.47
2018-12-19T02:47:47.707Z,148.40
2018-12-19T02:50:22.541Z,141.97
2018-12-19T02:52:52.765Z,142.50
2018-12-19T02:55:22.933Z,140.37
2018-12-19T02:57:59.556Z,141.87
2018-12-19T03:00:30.322Z,138.07
2018-12-19T03:03:00.941Z,133.90
2018-12-19T03:05:31.791Z,141.00
2018-12-19T03:08:03.729Z,139.53
2018-12-19T03:10:34.718Z,136.77
2018-12-19T03:13:06.005Z,141.65
2018-12-19T03:15:36.178Z,139.33
2018-12-19T03:18:06.530Z,137.37
2018-12-19T03:20:36.859Z,144.40
2018-12-19T03:23:07.240Z,131.37
2018-12-19T03:25:37.715Z,137.40
2018-12-19T03:28:07.962Z,138.70
2018-12-19T03:30:38.349Z,138.57
2018-12-19T03:33:09.009Z,133.90
2018-12-19T03:35:39.220Z,136.40
2018-12-19T03:38:11.522Z,136.35
2018-12-19T03:40:41.808Z,134.37
2018-12-19T03:43:12.208Z,131.63
2018-12-19T03:48:26.203Z,136.17
2018-12-19T03:50:57.659Z,130.13
2018-12-19T03:53:28.233Z,126.17
2018-12-19T03:55:58.742Z,135.47
2018-12-19T03:58:30.152Z,126.67
2018-12-19T04:01:00.209Z,127.00
2018-12-19T04:03:30.488Z,124.43
2018-12-19T04:06:00.596Z,123.60
2018-12-19T04:08:30.845Z,122.83
2018-12-19T04:11:01.828Z,123.00
2018-12-19T04:13:32.767Z,119.57
2018-12-19T04:16:03.352Z,114.60
2018-12-19T04:18:35.121Z,120.70
2018-12-19T04:21:05.511Z,111.10
2018-12-19T04:23:36.653Z,117.03
2018-12-19T04:28:44.458Z,115.07
2018-12-19T04:31:14.505Z,115.72
2018-12-19T04:33:44.967Z,113.37
2018-12-19T04:36:15.334Z,115.30
2018-12-19T04:41:23.345Z,116.57
2018-12-19T04:43:53.418Z,112.37
2018-12-19T04:46:24.372Z,111.97
2018-12-19T04:48:54.730Z,108.73
2018-12-19T04:51:26.734Z,115.40
2018-12-19T04:53:57.906Z,115.17
2018-12-19T04:56:28.604Z,116.63
2018-12-19T04:58:59.124Z,112.90
2018-12-19T05:01:29.885Z,110.63
2018-12-19T05:04:00.312Z,109.37
2018-12-19T05:06:30.727Z,99.80
2018-12-19T05:09:00.794Z,101.70
2018-12-19T05:11:31.133Z,97.33
2018-12-19T05:14:01.203Z,86.23
2018-12-19T05:16:31.532Z,84.90
2018-12-19T05:19:01.761Z,77.43
2018-12-19T05:21:32.231Z,72.83
2018-12-19T05:24:02.559Z,67.90
2018-12-19T05:26:33.203Z,72.07
2018-12-19T05:29:03.513Z,68.17
2018-12-19T05:31:34.274Z,66.90
2018-12-19T05:34:05.604Z,62.55
2018-12-19T05:36:36.858Z,59.77
2018-12-19T05:39:07.713Z,58.93
2018-12-19T05:41:38.035Z,57.17
2018-12-19T05:44:08.161Z,52.00
2018-12-19T05:46:38.877Z,56.97
2018-12-19T05:49:09.142Z,56.60
2018-12-19T05:51:39.868Z,53.48
2018-12-19T05:54:10.511Z,54.15
2018-12-19T05:56:40.509Z,49.73
2018-12-19T05:59:10.636Z,50.73
2018-12-19T06:01:41.330Z,47.57
2018-12-19T06:04:13.594Z,49.00
2018-12-19T06:06:43.959Z,46.50
2018-12-19T06:09:15.627Z,49.27
2018-12-19T06:11:46.143Z,46.57
2018-12-19T06:14:16.333Z,46.40
2018-12-19T06:16:46.629Z,44.80
2018-12-19T06:19:17.220Z,48.70
2018-12-19T06:21:48.651Z,40.37
2018-12-19T06:24:23.703Z,41.77
2018-12-19T06:26:53.951Z,40.90
2018-12-19T06:29:24.279Z,42.77
2018-12-19T06:31:55.006Z,40.30
2018-12-19T06:34:25.063Z,41.28
2018-12-19T06:36:55.235Z,39.67
2018-12-19T06:39:25.238Z,43.78
2018-12-19T06:41:55.511Z,40.13
2018-12-19T06:44:25.603Z,38.00
2018-12-19T06:46:56.244Z,43.00
2018-12-19T06:49:27.215Z,39.70
2018-12-19T06:51:57.192Z,38.43
2018-12-19T06:54:33.794Z,38.90
2018-12-19T06:57:03.776Z,35.37
2018-12-19T06:59:34.774Z,36.90
2018-12-19T07:02:05.492Z,41.17
2018-12-19T07:04:35.819Z,37.53
2018-12-19T07:07:12.213Z,36.03
2018-12-19T07:09:42.640Z,37.47
2018-12-19T07:12:13.350Z,35.97
2018-12-19T07:14:43.679Z,41.30
2018-12-19T07:17:13.746Z,40.48
2018-12-19T07:19:43.893Z,37.30
2018-12-19T07:22:13.960Z,36.33
2018-12-19T07:24:44.073Z,33.17
2018-12-19T07:27:14.523Z,34.97
2018-12-19T07:29:44.493Z,34.40
2018-12-19T07:32:14.642Z,34.92
2018-12-19T07:34:45.662Z,39.23
2018-12-19T07:37:15.768Z,33.30
2018-12-19T07:42:22.597Z,39.03
2018-12-19T07:44:52.781Z,36.40
2018-12-19T07:47:22.791Z,37.70
2018-12-19T07:49:52.739Z,37.63
2018-12-19T07:52:22.848Z,37.00
2018-12-19T07:54:52.934Z,38.93
2018-12-19T07:57:23.210Z,36.30
2018-12-19T07:59:53.345Z,36.77
2018-12-19T08:02:23.339Z,38.57
2018-12-19T08:04:53.598Z,35.97
2018-12-19T08:07:24.065Z,36.53
2018-12-19T08:09:54.309Z,35.25
2018-12-19T08:12:24.262Z,36.30
2018-12-19T08:14:58.376Z,39.33
2018-12-19T08:17:29.092Z,40.53
2018-12-19T08:19:59.609Z,41.77
2018-12-19T08:22:30.194Z,39.43
2018-12-19T08:25:00.624Z,42.13
2018-12-19T08:27:30.940Z,45.17
2018-12-19T08:30:00.972Z,38.00
2018-12-19T08:32:31.100Z,40.67
2018-12-19T08:35:01.050Z,41.63
2018-12-19T08:37:31.160Z,40.57
2018-12-19T08:40:01.921Z,39.00
2018-12-19T08:42:32.087Z,35.67
2018-12-19T08:47:44.977Z,37.43
2018-12-19T08:50:15.910Z,35.08
2018-12-19T08:52:46.025Z,41.27
2018-12-19T08:55:16.686Z,32.88
2018-12-19T08:57:46.977Z,36.63
2018-12-19T09:00:17.704Z,34.88
2018-12-19T09:02:48.191Z,33.73
2018-12-19T09:05:22.093Z,29.98
2018-12-19T09:07:53.161Z,29.47
2018-12-19T09:10:23.248Z,28.97
2018-12-19T09:12:53.265Z,29.53
2018-12-19T09:18:06.164Z,29.63
2018-12-19T09:20:36.484Z,30.00
2018-12-19T09:23:06.645Z,26.73
2018-12-19T09:25:37.605Z,29.20
2018-12-19T09:28:09.564Z,29.43
2018-12-19T09:30:40.476Z,27.10
2018-12-19T09:33:13.954Z,26.50
2018-12-19T09:35:44.107Z,29.40
2018-12-19T09:38:14.588Z,28.85
2018-12-19T09:40:45.856Z,27.77
2018-12-19T09:43:16.138Z,28.15
2018-12-19T09:45:46.844Z,27.10
2018-12-19T09:50:54.448Z,28.63
2018-12-19T09:56:10.175Z,32.57
2018-12-19T09:58:41.017Z,25.47
2018-12-19T10:01:11.697Z,26.77
2018-12-19T10:03:41.746Z,26.63
2018-12-19T10:06:12.180Z,28.57
2018-12-19T10:11:19.190Z,29.53
2018-12-19T10:13:50.145Z,31.55
2018-12-19T10:16:20.258Z,27.98
2018-12-19T10:18:50.495Z,27.83
2018-12-19T10:27:49.639Z,28.60
2018-12-19T10:30:20.359Z,34.20
2018-12-19T10:32:56.959Z,30.40
2018-12-19T10:38:03.711Z,28.47
2018-12-19T10:43:10.640Z,28.53
2018-12-19T10:45:40.634Z,27.63
2018-12-19T10:48:11.147Z,31.47
2018-12-19T10:50:41.493Z,29.63
2018-12-19T10:53:11.743Z,27.37
2018-12-19T10:55:42.888Z,29.13
2018-12-19T10:58:13.686Z,30.27
2018-12-19T11:03:30.231Z,29.37
2018-12-19T11:06:00.407Z,31.57
2018-12-19T11:08:31.201Z,29.13
2018-12-19T11:11:01.287Z,29.57
2018-12-19T11:13:31.403Z,28.57
2018-12-19T11:16:02.461Z,27.93
2018-12-19T11:18:32.656Z,28.73
2018-12-19T11:23:39.718Z,29.17
2018-12-19T11:26:13.894Z,27.22
2018-12-19T11:28:44.350Z,25.87
2018-12-19T11:31:14.501Z,28.00
2018-12-19T11:33:45.077Z,27.77
2018-12-19T11:36:15.401Z,29.98
2018-12-19T11:38:47.173Z,27.60
2018-12-19T11:41:17.308Z,27.75
2018-12-19T11:46:24.510Z,29.60
2018-12-19T11:48:54.535Z,28.03
2018-12-19T11:51:24.487Z,29.83
2018-12-19T11:53:54.886Z,28.90
2018-12-19T11:56:24.907Z,29.73
2018-12-19T11:58:55.288Z,29.10
2018-12-19T12:01:25.430Z,28.10
2018-12-19T12:03:55.708Z,30.00
2018-12-19T12:06:27.942Z,27.27
2018-12-19T12:08:57.998Z,26.10
2018-12-19T12:11:28.376Z,26.63
2018-12-19T12:13:58.812Z,25.03
2018-12-19T12:16:29.233Z,25.63
2018-12-19T12:18:59.533Z,25.97
2018-12-19T12:21:31.082Z,27.10
2018-12-19T12:24:01.672Z,25.90
2018-12-19T12:26:32.988Z,25.63
2018-12-19T12:29:04.362Z,24.30
2018-12-19T12:31:34.528Z,25.23
2018-12-19T12:34:06.696Z,26.30
2018-12-19T12:36:36.931Z,29.23
2018-12-19T12:39:08.815Z,26.90
2018-12-19T12:41:43.668Z,29.53
2018-12-19T12:44:13.693Z,27.93
2018-12-19T12:46:43.937Z,27.57
2018-12-19T12:49:14.981Z,28.67
2018-12-19T12:51:45.078Z,27.47
2018-12-19T12:54:15.885Z,28.02
2018-12-19T12:56:46.146Z,27.73
2018-12-19T12:59:16.267Z,27.13
2018-12-19T13:01:46.353Z,27.63
2018-12-19T13:04:16.584Z,28.12
2018-12-19T13:06:46.893Z,30.67
2018-12-19T13:09:17.098Z,25.33
2018-12-19T13:11:47.223Z,27.00
2018-12-19T13:14:17.626Z,28.47
2018-12-19T13:19:24.116Z,28.47
2018-12-19T13:21:54.201Z,27.55
2018-12-19T13:24:24.717Z,31.53
2018-12-19T13:26:56.616Z,31.17
2018-12-19T13:32:03.926Z,30.27
2018-12-19T13:34:33.912Z,28.87
2018-12-19T13:37:04.653Z,32.17
2018-12-19T13:39:34.730Z,30.67
2018-12-19T13:44:42.405Z,35.93
2018-12-19T13:47:15.452Z,38.53
2018-12-19T13:49:46.780Z,35.00
2018-12-19T13:52:17.300Z,38.07
2018-12-19T13:57:23.751Z,35.03
2018-12-19T13:59:53.731Z,38.00
2018-12-19T14:02:23.887Z,36.30
2018-12-19T14:04:54.108Z,36.27
2018-12-19T14:10:01.691Z,42.63
2018-12-19T14:12:31.992Z,49.00
2018-12-19T14:15:02.067Z,46.90
2018-12-19T14:17:32.881Z,46.17
2018-12-19T14:20:02.997Z,49.80
2018-12-19T14:22:33.334Z,49.50
2018-12-19T14:25:03.820Z,55.47
2018-12-19T14:27:34.038Z,51.60
2018-12-19T14:30:06.455Z,57.43
2018-12-19T14:32:39.626Z,56.93
2018-12-19T14:35:10.339Z,62.00
2018-12-19T14:37:40.749Z,58.90
2018-12-19T14:40:11.523Z,63.87
2018-12-19T14:42:41.839Z,69.47
2018-12-19T14:45:12.678Z,67.45
2018-12-19T14:50:25.632Z,73.53
2018-12-19T14:52:55.680Z,79.23
2018-12-19T14:55:27.447Z,74.47
2018-12-19T14:57:57.718Z,76.07
2018-12-19T15:00:27.945Z,78.87
2018-12-19T15:02:58.725Z,77.20
2018-12-19T15:05:29.173Z,73.47
2018-12-19T15:07:59.416Z,72.37
2018-12-19T15:10:29.636Z,73.03
2018-12-19T15:12:59.748Z,69.13
2018-12-19T15:15:30.379Z,67.33
2018-12-19T15:18:01.841Z,67.27
2018-12-19T15:20:33.237Z,67.20
2018-12-19T15:23:03.431Z,78.45
2018-12-19T15:25:33.997Z,86.50
2018-12-19T15:28:04.311Z,85.80
2018-12-19T15:30:35.298Z,83.50
2018-12-19T15:33:05.928Z,89.97
2018-12-19T15:35:37.363Z,84.90
2018-12-19T15:38:07.370Z,88.33
2018-12-19T15:40:39.567Z,88.10
2018-12-19T15:45:52.522Z,93.00
2018-12-19T15:48:22.808Z,100.67
2018-12-19T15:50:52.999Z,107.13
2018-12-19T15:53:24.339Z,90.53
2018-12-19T15:55:54.983Z,95.90
2018-12-19T15:58:26.009Z,92.63
2018-12-19T16:00:56.199Z,93.30
2018-12-19T16:03:26.201Z,96.63
2018-12-19T16:08:32.870Z,89.47
2018-12-19T16:11:03.375Z,90.20
2018-12-19T16:13:33.790Z,93.97
2018-12-19T16:16:04.947Z,89.70
2018-12-19T16:18:35.178Z,88.50
2018-12-19T16:21:06.645Z,89.63
2018-12-19T16:23:38.228Z,87.73
2018-12-19T16:26:09.790Z,84.50
2018-12-19T16:28:39.853Z,92.97
2018-12-19T16:31:10.161Z,94.35
2018-12-19T16:33:40.615Z,88.33
2018-12-19T16:36:12.718Z,84.90
2018-12-19T16:38:44.027Z,83.03
2018-12-19T16:41:14.206Z,83.75
2018-12-19T16:43:44.281Z,91.25
2018-12-19T16:46:14.711Z,89.65
2018-12-19T16:48:45.305Z,92.00
2018-12-19T16:51:15.695Z,90.20
2018-12-19T16:53:46.099Z,92.37
2018-12-19T16:56:16.317Z,97.80
2018-12-19T16:58:46.646Z,95.20
2018-12-19T17:01:17.302Z,89.80
2018-12-19T17:03:47.370Z,90.70
2018-12-19T17:08:55.475Z,97.10
2018-12-19T17:11:25.572Z,99.97
2018-12-19T17:13:56.301Z,98.73
2018-12-19T17:16:27.151Z,104.50
2018-12-19T17:18:58.134Z,97.70
2018-12-19T17:21:29.781Z,102.73
2018-12-19T17:24:00.555Z,102.57
2018-12-19T17:26:31.197Z,100.07
2018-12-19T17:29:01.326Z,107.47
2018-12-19T17:31:31.378Z,108.17
2018-12-19T17:36:38.045Z,109.60
2018-12-19T17:39:08.643Z,107.13
2018-12-19T17:41:41.249Z,110.60
2018-12-19T17:44:14.365Z,109.75
2018-12-19T17:46:45.166Z,105.73
2018-12-19T17:49:15.364Z,111.57
2018-12-19T17:51:46.545Z,107.17
2018-12-19T17:54:16.869Z,109.57
2018-12-19T17:56:47.579Z,113.67
2018-12-19T17:59:18.067Z,110.73
2018-12-19T18:01:48.807Z,105.73
2018-12-19T18:04:19.303Z,113.28
2018-12-19T18:06:49.924Z,116.73
2018-12-19T18:09:20.241Z,112.50
2018-12-19T18:11:54.464Z,122.17
2018-12-19T18:14:24.733Z,128.40
2018-12-19T18:16:55.533Z,132.33
2018-12-19T18:19:26.073Z,141.53
2018-12-19T18:22:00.643Z,148.33
2018-12-19T18:24:31.379Z,156.80
2018-12-19T18:27:01.867Z,153.23
2018-12-19T18:29:32.284Z,151.50
2018-12-19T18:32:03.486Z,150.43
2018-12-19T18:34:33.773Z,149.37
2018-12-19T18:37:04.586Z,149.13
2018-12-19T18:39:34.830Z,151.13
2018-12-19T18:42:06.656Z,145.00
2018-12-19T18:44:37.424Z,154.67
2018-12-19T18:47:09.066Z,150.17
2018-12-19T18:49:39.730Z,152.60
2018-12-19T18:52:09.711Z,146.00
2018-12-19T18:54:40.308Z,139.67
2018-12-19T18:57:10.471Z,141.57
2018-12-19T18:59:40.783Z,144.03
2018-12-19T19:04:48.350Z,135.67
2018-12-19T19:07:22.371Z,140.07
2018-12-19T19:09:53.500Z,129.53
2018-12-19T20:00:41.334Z,189.57
2018-12-19T20:03:13.075Z,192.80
2018-12-19T20:05:45.269Z,161.37
2018-12-19T20:08:16.760Z,166.80
2018-12-19T20:10:47.623Z,165.40
2018-12-19T20:13:18.730Z,164.03
2018-12-19T20:15:49.873Z,185.47
2018-12-19T20:18:24.024Z,179.40
2018-12-19T20:20:54.814Z,197.28
2018-12-19T20:23:26.273Z,181.27
2018-12-19T20:25:57.284Z,177.27
2018-12-19T20:28:29.063Z,166.53
2018-12-19T20:30:59.744Z,152.27
2018-12-19T20:33:34.255Z,150.50
2018-12-19T20:36:06.003Z,144.40
2018-12-19T20:38:36.622Z,155.33
2018-12-19T20:41:07.193Z,147.23
2018-12-19T20:43:40.080Z,145.77
2018-12-19T20:46:10.905Z,146.70
2018-12-19T20:48:42.203Z,149.60
2018-12-19T20:51:13.707Z,149.60
2018-12-19T20:53:48.282Z,153.13
2018-12-19T20:56:19.096Z,132.90
2018-12-19T20:58:50.130Z,138.87
2018-12-19T21:01:20.734Z,137.40
2018-12-19T21:03:51.626Z,134.63
2018-12-19T21:06:22.133Z,131.83
2018-12-19T21:08:52.968Z,132.73
2018-12-19T21:11:23.468Z,129.37
2018-12-19T21:13:54.432Z,139.85
2018-12-19T21:16:30.015Z,141.75
2018-12-19T21:19:00.366Z,142.20
2018-12-19T21:21:32.233Z,140.10
2018-12-19T21:24:02.944Z,133.77
2018-12-19T21:26:33.525Z,137.37
2018-12-19T21:29:04.835Z,133.07
2018-12-19T21:31:36.936Z,135.03
2018-12-19T21:34:07.426Z,133.93
2018-12-19T21:36:38.200Z,142.47
2018-12-19T21:39:10.445Z,138.43
2018-12-19T21:41:41.060Z,134.73
2018-12-19T21:44:18.213Z,141.50
2018-12-19T21:46:48.613Z,148.07
2018-12-19T21:49:19.235Z,141.93
2018-12-19T21:51:50.072Z,137.67
2018-12-19T21:54:20.633Z,137.95
2018-12-19T21:56:51.309Z,136.53
2018-12-19T21:59:21.708Z,141.40
2018-12-19T22:01:52.178Z,132.13
2018-12-19T22:04:22.629Z,130.93
2018-12-19T22:06:53.401Z,138.00
2018-12-19T22:09:25.070Z,131.72
2018-12-19T22:11:56.081Z,123.87
2018-12-19T22:14:26.386Z,123.63
2018-12-19T22:17:02.292Z,129.07
2018-12-19T22:19:33.130Z,137.92
2018-12-19T22:22:03.883Z,127.40
2018-12-19T22:24:34.490Z,144.40
2018-12-19T22:27:05.660Z,138.15
2018-12-19T22:29:36.745Z,140.73
2018-12-19T22:32:08.380Z,145.80
2018-12-19T22:34:39.120Z,143.73
2018-12-19T22:37:09.373Z,153.27
2018-12-19T22:39:39.923Z,144.97
2018-12-19T22:42:11.428Z,140.47
2018-12-19T22:44:42.150Z,140.53
2018-12-19T22:47:12.364Z,143.97
2018-12-19T22:49:42.877Z,144.70
2018-12-19T22:52:13.371Z,142.70
2018-12-19T22:54:43.899Z,142.13
2018-12-19T22:57:14.151Z,144.77
2018-12-19T22:59:44.911Z,142.93
2018-12-19T23:02:20.782Z,151.80
2018-12-19T23:04:51.169Z,136.23
2018-12-19T23:07:21.787Z,145.47
2018-12-19T23:09:52.022Z,149.40
2018-12-19T23:12:22.497Z,140.62
2018-12-19T23:14:52.843Z,151.87
2018-12-19T23:17:33.978Z,139.77
2018-12-19T23:20:11.929Z,152.95
2018-12-19T23:22:48.002Z,145.03
2018-12-19T23:25:25.280Z,146.57
2018-12-19T23:27:58.015Z,145.63
2018-12-19T23:33:05.003Z,148.73
2018-12-19T23:35:35.054Z,136.10
2018-12-19T23:38:05.834Z,143.77
2018-12-19T23:40:36.905Z,141.60
2018-12-19T23:43:08.020Z,127.17
2018-12-19T23:45:38.499Z,135.97
2018-12-19T23:48:09.555Z,137.60
2018-12-19T23:50:40.113Z,130.13
2018-12-19T23:53:10.197Z,127.38
2018-12-19T23:55:40.964Z,129.10
2018-12-19T23:58:12.102Z,130.72
